createdAt,value
2022-09-29T00:02:19.201Z,7.70
2022-09-29T00:06:01.222Z,7.60
2022-09-29T00:09:43.064Z,7.60
2022-09-29T00:13:25.016Z,7.50
2022-09-29T00:17:06.881Z,7.50
2022-09-29T00:21:04.583Z,7.40
2022-09-29T00:24:47.951Z,7.30
2022-09-29T00:28:30.571Z,7.30
2022-09-29T00:32:12.502Z,7.20
2022-09-29T00:36:02.301Z,7.20
2022-09-29T00:39:44.194Z,7.10
2022-09-29T00:43:49.163Z,7.10
2022-09-29T00:47:33.073Z,7.00
2022-09-29T00:51:16.413Z,7.00
2022-09-29T00:55:13.346Z,6.90
2022-09-29T00:59:03.081Z,7.00
2022-09-29T01:02:56.806Z,6.90
2022-09-29T01:06:44.347Z,7.00
2022-09-29T01:10:27.530Z,7.00
2022-09-29T01:14:10.961Z,7.10
2022-09-29T01:17:52.837Z,7.20
2022-09-29T01:21:46.952Z,7.20
2022-09-29T01:26:05.667Z,7.20
2022-09-29T01:29:55.562Z,7.30
2022-09-29T01:34:03.105Z,7.40
2022-09-29T01:37:48.029Z,7.50
2022-09-29T01:42:02.495Z,7.50
2022-09-29T01:46:08.776Z,7.50
2022-09-29T01:50:01.961Z,7.60
2022-09-29T01:53:50.478Z,7.60
2022-09-29T01:57:42.589Z,7.60
2022-09-29T02:01:29.455Z,7.70
2022-09-29T02:05:18.110Z,7.70
2022-09-29T02:09:03.210Z,7.80
2022-09-29T02:12:46.679Z,7.90
2022-09-29T02:16:32.094Z,7.90
2022-09-29T02:20:14.650Z,7.90
2022-09-29T02:23:57.553Z,8.00
2022-09-29T02:27:40.527Z,8.00
2022-09-29T02:31:26.306Z,8.10
2022-09-29T02:35:11.807Z,8.10
2022-09-29T02:39:03.337Z,8.20
2022-09-29T02:42:53.448Z,8.20
2022-09-29T02:46:50.046Z,8.20
2022-09-29T02:50:37.424Z,8.30
2022-09-29T02:54:40.193Z,8.30
2022-09-29T02:58:54.050Z,8.40
2022-09-29T03:02:37.137Z,8.40
2022-09-29T03:06:21.596Z,8.40
2022-09-29T03:10:04.235Z,8.50
2022-09-29T03:13:46.064Z,8.50
2022-09-29T03:17:28.012Z,8.50
2022-09-29T03:21:09.900Z,8.50
2022-09-29T03:24:51.853Z,8.50
2022-09-29T03:28:33.881Z,8.50
2022-09-29T03:32:15.803Z,8.50
2022-09-29T03:35:57.694Z,8.60
2022-09-29T03:39:39.671Z,8.60
2022-09-29T03:43:21.566Z,8.50
2022-09-29T03:47:03.490Z,8.60
2022-09-29T03:50:46.279Z,8.60
2022-09-29T03:54:28.234Z,8.60
2022-09-29T03:58:10.061Z,8.60
2022-09-29T04:01:51.997Z,8.60
2022-09-29T04:05:38.862Z,8.70
2022-09-29T04:09:20.821Z,8.70
2022-09-29T04:13:03.427Z,8.70
2022-09-29T04:16:45.653Z,8.70
2022-09-29T04:20:27.813Z,8.70
2022-09-29T04:24:09.767Z,8.80
2022-09-29T04:27:51.600Z,8.80
2022-09-29T04:31:33.738Z,8.80
2022-09-29T04:35:15.777Z,8.80
2022-09-29T04:38:57.642Z,8.80
2022-09-29T04:42:39.731Z,8.90
2022-09-29T04:46:21.926Z,8.90
2022-09-29T04:50:04.161Z,8.90
2022-09-29T04:53:46.110Z,8.90
2022-09-29T04:57:27.943Z,8.90
2022-09-29T05:01:15.209Z,8.90
2022-09-29T05:04:57.124Z,9.00
2022-09-29T05:08:39.068Z,9.00
2022-09-29T05:12:21.218Z,9.10
2022-09-29T05:16:04.606Z,9.10
2022-09-29T05:19:46.540Z,9.10
2022-09-29T05:23:29.560Z,9.20
2022-09-29T05:27:11.476Z,9.20
2022-09-29T05:30:53.346Z,9.20
2022-09-29T05:34:35.239Z,9.20
2022-09-29T05:38:17.085Z,9.30
2022-09-29T05:41:59.754Z,9.30
2022-09-29T05:45:42.626Z,9.30
2022-09-29T05:49:24.562Z,9.30
2022-09-29T05:53:06.439Z,9.30
2022-09-29T05:56:48.279Z,9.40
2022-09-29T06:00:31.605Z,9.40
2022-09-29T06:04:13.509Z,9.40
2022-09-29T06:07:55.703Z,9.40
2022-09-29T06:11:37.531Z,9.50
2022-09-29T06:15:19.515Z,9.50
2022-09-29T06:19:01.950Z,9.50
2022-09-29T06:22:43.892Z,9.50
2022-09-29T06:26:27.117Z,9.50
2022-09-29T06:30:09.737Z,9.60
2022-09-29T06:33:51.796Z,9.50
2022-09-29T06:37:36.664Z,9.60
2022-09-29T06:41:19.509Z,9.60
2022-09-29T06:45:01.565Z,9.60
2022-09-29T06:48:43.399Z,9.60
2022-09-29T06:52:29.171Z,9.70
2022-09-29T06:56:12.896Z,9.80
2022-09-29T06:59:54.849Z,9.90
2022-09-29T07:03:36.746Z,10.00
2022-09-29T07:07:18.607Z,10.10
2022-09-29T07:11:00.472Z,10.20
2022-09-29T07:14:42.356Z,10.30
2022-09-29T07:18:24.336Z,10.40
2022-09-29T07:22:07.115Z,10.50
2022-09-29T07:25:51.955Z,10.50
2022-09-29T07:29:35.185Z,10.60
2022-09-29T07:33:17.706Z,10.60
2022-09-29T07:37:00.480Z,10.70
2022-09-29T07:40:42.381Z,10.60
2022-09-29T07:44:24.354Z,10.70
2022-09-29T07:48:06.217Z,10.70
2022-09-29T07:51:51.436Z,10.80
2022-09-29T07:55:33.400Z,10.80
2022-09-29T07:59:15.308Z,10.90
2022-09-29T08:03:07.489Z,10.90
2022-09-29T08:06:49.585Z,10.90
2022-09-29T08:10:46.912Z,10.90
2022-09-29T08:14:31.494Z,10.90
2022-09-29T08:18:13.341Z,11.00
2022-09-29T08:21:55.206Z,11.00
2022-09-29T08:25:37.030Z,11.10
2022-09-29T08:29:18.961Z,11.20
2022-09-29T08:33:00.816Z,11.30
2022-09-29T08:36:43.515Z,11.30
2022-09-29T08:40:29.244Z,11.30
2022-09-29T08:44:38.468Z,11.30
2022-09-29T08:48:27.845Z,11.40
2022-09-29T08:52:17.196Z,11.40
2022-09-29T08:56:04.715Z,11.50
2022-09-29T08:59:58.279Z,11.60
2022-09-29T09:03:52.151Z,11.80
2022-09-29T09:08:00.573Z,12.00
2022-09-29T09:12:26.884Z,12.10
2022-09-29T09:16:34.811Z,12.40
2022-09-29T09:20:54.782Z,12.70
2022-09-29T09:24:47.699Z,13.10
2022-09-29T09:28:37.690Z,13.40
2022-09-29T09:32:27.552Z,13.60
2022-09-29T09:36:21.639Z,13.60
2022-09-29T09:40:21.031Z,13.60
2022-09-29T09:44:13.970Z,13.60
2022-09-29T09:48:10.539Z,13.40
2022-09-29T09:56:31.903Z,13.20
2022-09-29T10:00:32.425Z,13.10
2022-09-29T10:04:14.598Z,13.10
2022-09-29T10:07:56.717Z,13.10
2022-09-29T10:11:38.697Z,13.10
2022-09-29T10:15:31.239Z,13.10
2022-09-29T10:19:13.364Z,13.60
2022-09-29T10:22:59.183Z,15.00
2022-09-29T10:26:44.648Z,16.20
2022-09-29T10:30:36.301Z,17.00
2022-09-29T10:34:24.724Z,17.30
2022-09-29T10:38:15.732Z,17.20
2022-09-29T10:41:57.587Z,17.10
2022-09-29T10:45:58.603Z,16.90
2022-09-29T10:49:41.234Z,16.40
2022-09-29T10:53:38.726Z,15.90
2022-09-29T10:57:26.066Z,15.40
2022-09-29T11:01:16.965Z,15.00
2022-09-29T11:05:05.515Z,14.70
2022-09-29T11:09:15.723Z,14.40
2022-09-29T11:13:01.138Z,14.20
2022-09-29T11:16:54.036Z,14.10
2022-09-29T11:20:37.289Z,14.00
2022-09-29T11:24:29.009Z,14.00
2022-09-29T11:28:42.340Z,13.90
2022-09-29T11:33:01.226Z,13.80
2022-09-29T11:37:03.023Z,13.80
2022-09-29T11:40:57.137Z,13.80
2022-09-29T11:44:44.902Z,13.80
2022-09-29T11:48:44.040Z,13.80
2022-09-29T11:52:56.840Z,13.90
2022-09-29T11:57:00.807Z,14.00
2022-09-29T12:01:10.372Z,14.30
2022-09-29T12:05:18.308Z,14.70
2022-09-29T12:09:33.366Z,15.10
2022-09-29T12:13:27.319Z,16.00
2022-09-29T12:17:18.284Z,17.30
2022-09-29T12:21:03.791Z,18.30
2022-09-29T12:24:55.329Z,19.20
2022-09-29T12:28:42.974Z,19.60
2022-09-29T12:32:37.568Z,19.40
2022-09-29T12:36:46.696Z,19.10
2022-09-29T12:40:40.688Z,18.60
2022-09-29T12:44:30.928Z,18.10
2022-09-29T12:48:34.394Z,17.70
2022-09-29T12:52:22.278Z,17.40
2022-09-29T12:56:22.974Z,17.20
2022-09-29T13:00:15.935Z,17.00
2022-09-29T13:04:04.227Z,17.00
2022-09-29T13:08:23.629Z,17.00
2022-09-29T13:12:09.385Z,17.00
2022-09-29T13:16:18.319Z,17.00
2022-09-29T13:20:21.133Z,16.90
2022-09-29T13:24:09.150Z,16.90
2022-09-29T13:27:54.003Z,17.00
2022-09-29T13:31:39.836Z,17.10
2022-09-29T13:35:24.703Z,17.50
2022-09-29T13:39:25.658Z,17.60
2022-09-29T13:43:59.635Z,17.70
2022-09-29T13:47:50.178Z,18.00
2022-09-29T13:51:49.976Z,18.10
2022-09-29T13:55:51.804Z,17.80
2022-09-29T13:59:35.225Z,17.60
2022-09-29T14:03:36.627Z,17.40
2022-09-29T14:07:39.432Z,17.20
2022-09-29T14:11:43.201Z,17.00
2022-09-29T14:15:26.758Z,17.00
2022-09-29T14:19:14.012Z,17.00
2022-09-29T14:23:11.147Z,17.00
2022-09-29T14:26:54.671Z,17.00
2022-09-29T14:30:54.985Z,17.00
2022-09-29T14:34:37.022Z,16.80
2022-09-29T14:38:27.713Z,16.70
2022-09-29T14:42:17.088Z,16.60
2022-09-29T14:46:26.923Z,16.50
2022-09-29T14:50:52.219Z,16.60
2022-09-29T14:55:02.011Z,16.80
2022-09-29T14:59:02.749Z,16.90
2022-09-29T15:02:59.732Z,16.90
2022-09-29T15:06:48.718Z,17.00
2022-09-29T15:10:41.210Z,17.00
2022-09-29T15:14:28.487Z,16.90
2022-09-29T15:18:38.172Z,16.90
2022-09-29T15:22:53.881Z,16.90
2022-09-29T15:26:36.995Z,16.90
2022-09-29T15:30:21.149Z,16.90
2022-09-29T15:34:04.637Z,17.00
2022-09-29T15:38:09.993Z,17.00
2022-09-29T15:42:01.512Z,16.90
2022-09-29T15:45:53.392Z,16.80
2022-09-29T15:49:39.812Z,16.70
2022-09-29T15:53:24.488Z,16.60
2022-09-29T15:57:25.417Z,16.60
2022-09-29T16:01:08.624Z,16.60
2022-09-29T16:04:55.224Z,16.50
2022-09-29T16:08:46.158Z,16.50
2022-09-29T16:12:30.322Z,16.50
2022-09-29T16:16:12.645Z,16.60
2022-09-29T16:19:54.718Z,16.60
2022-09-29T16:23:42.234Z,16.60
2022-09-29T16:28:00.767Z,16.50
2022-09-29T16:31:44.647Z,16.30
2022-09-29T16:36:07.025Z,16.10
2022-09-29T16:39:49.625Z,15.90
2022-09-29T16:43:31.949Z,15.80
2022-09-29T16:47:15.684Z,15.70
2022-09-29T16:51:08.345Z,15.60
2022-09-29T16:55:17.133Z,15.50
2022-09-29T16:59:07.690Z,15.40
2022-09-29T17:02:57.728Z,15.30
2022-09-29T17:06:47.589Z,15.20
2022-09-29T17:10:30.303Z,15.00
2022-09-29T17:14:13.628Z,14.90
2022-09-29T17:17:55.430Z,14.80
2022-09-29T17:21:38.038Z,14.70
2022-09-29T17:25:19.995Z,14.60
2022-09-29T17:29:02.503Z,14.50
2022-09-29T17:32:46.778Z,14.40
2022-09-29T17:36:29.073Z,14.20
2022-09-29T17:40:22.378Z,14.00
2022-09-29T17:44:06.138Z,13.90
2022-09-29T17:47:49.856Z,13.70
2022-09-29T17:51:32.008Z,13.60
2022-09-29T17:55:13.928Z,13.40
2022-09-29T17:58:55.899Z,13.30
2022-09-29T18:02:37.743Z,13.10
2022-09-29T18:06:21.965Z,13.00
2022-09-29T18:10:24.310Z,12.90
2022-09-29T18:14:06.161Z,12.70
2022-09-29T18:17:48.098Z,12.60
2022-09-29T18:21:31.903Z,12.50
2022-09-29T18:25:15.352Z,12.30
2022-09-29T18:28:59.126Z,12.20
2022-09-29T18:32:40.958Z,12.10
2022-09-29T18:36:23.001Z,12.00
2022-09-29T18:40:05.190Z,11.90
2022-09-29T18:43:47.974Z,11.80
2022-09-29T18:47:29.848Z,11.70
2022-09-29T18:51:13.714Z,11.60
2022-09-29T18:54:55.678Z,11.60
2022-09-29T18:58:38.199Z,11.50
2022-09-29T19:02:20.230Z,11.40
2022-09-29T19:06:02.591Z,11.30
2022-09-29T19:09:44.490Z,11.20
2022-09-29T19:13:26.976Z,11.10
2022-09-29T19:17:08.801Z,11.00
2022-09-29T19:20:51.884Z,10.90
2022-09-29T19:24:33.743Z,10.90
2022-09-29T19:28:16.674Z,10.80
2022-09-29T19:31:59.087Z,10.70
2022-09-29T19:35:46.678Z,10.60
2022-09-29T19:39:31.424Z,10.60
2022-09-29T19:43:14.486Z,10.50
2022-09-29T19:46:56.379Z,10.40
2022-09-29T19:50:56.825Z,10.30
2022-09-29T19:54:40.290Z,10.30
2022-09-29T19:58:23.361Z,10.20
2022-09-29T20:02:12.976Z,10.10
2022-09-29T20:06:03.288Z,10.10
2022-09-29T20:09:45.264Z,10.00
2022-09-29T20:13:27.281Z,9.90
2022-09-29T20:17:09.539Z,9.80
2022-09-29T20:20:52.443Z,9.80
2022-09-29T20:24:34.257Z,9.70
2022-09-29T20:28:16.207Z,9.70
2022-09-29T20:31:58.054Z,9.60
2022-09-29T20:35:40.405Z,9.60
2022-09-29T20:39:24.643Z,9.50
2022-09-29T20:43:06.898Z,9.50
2022-09-29T20:46:50.258Z,9.40
2022-09-29T20:50:32.188Z,9.40
2022-09-29T20:54:14.705Z,9.30
2022-09-29T20:58:00.452Z,9.20
2022-09-29T21:01:43.538Z,9.20
2022-09-29T21:05:25.588Z,9.10
2022-09-29T21:09:11.312Z,9.10
2022-09-29T21:12:54.412Z,9.10
2022-09-29T21:16:37.019Z,9.00
2022-09-29T21:20:18.929Z,8.90
2022-09-29T21:24:02.702Z,8.90
2022-09-29T21:27:44.617Z,8.90
2022-09-29T21:31:29.145Z,8.80
2022-09-29T21:35:11.149Z,8.80
2022-09-29T21:38:53.556Z,8.80
2022-09-29T21:42:35.420Z,8.70
2022-09-29T21:46:23.916Z,8.70
2022-09-29T21:50:07.013Z,8.60
2022-09-29T21:53:48.980Z,8.60
2022-09-29T21:57:30.862Z,8.50
2022-09-29T22:01:13.278Z,8.40
2022-09-29T22:04:55.158Z,8.40
2022-09-29T22:08:37.010Z,8.40
2022-09-29T22:12:18.884Z,8.30
2022-09-29T22:16:05.885Z,8.30
2022-09-29T22:19:47.834Z,8.20
2022-09-29T22:23:30.304Z,8.20
2022-09-29T22:27:12.156Z,8.20
2022-09-29T22:30:54.096Z,8.10
2022-09-29T22:34:36.048Z,8.10
2022-09-29T22:38:17.913Z,8.10
2022-09-29T22:42:01.307Z,8.00
2022-09-29T22:45:48.158Z,8.00
2022-09-29T22:49:29.921Z,7.90
2022-09-29T22:53:12.213Z,7.90
2022-09-29T22:56:55.255Z,7.90
2022-09-29T23:00:37.964Z,7.90
2022-09-29T23:04:19.862Z,7.80
2022-09-29T23:08:02.389Z,7.90
2022-09-29T23:11:44.258Z,7.90
2022-09-29T23:15:26.184Z,7.90
2022-09-29T23:19:08.098Z,7.90
2022-09-29T23:22:49.967Z,7.90
2022-09-29T23:26:31.921Z,7.90
2022-09-29T23:30:13.829Z,7.90
2022-09-29T23:34:00.202Z,7.90
2022-09-29T23:38:00.508Z,7.90
2022-09-29T23:41:50.390Z,7.90
2022-09-29T23:45:32.236Z,7.90
2022-09-29T23:49:17.685Z,7.90
2022-09-29T23:53:00.377Z,7.90
2022-09-29T23:56:42.585Z,7.90
